Time;durP1;ratioP1;P1;durP2;ratioP2;P2;SDS_P1;SDS_P2;PMS_P1;PMS_P2;Temp;Humidity;BMP_temperature;BMP_pressure;BME280_temperature;BME280_humidity;BME280_pressure;Samples;Min_cycle;Max_cycle;Signal;HPM_P1;HPM_P2
2020/12/14 00:01:53;;;;;;;6.80;4.28;;;4.40;99.90;;;;;;4999372;28;20584;-80
2020/12/14 00:04:19;;;;;;;10.20;4.25;;;4.40;99.90;;;;;;4987019;28;20061;-80
2020/12/14 00:06:51;;;;;;;7.82;4.22;;;4.30;99.90;;;;;;4969738;28;20049;-81
2020/12/14 00:09:17;;;;;;;9.93;4.70;;;4.30;99.90;;;;;;4978056;28;20042;-81
2020/12/14 00:11:43;;;;;;;7.55;4.25;;;4.20;99.90;;;;;;4971849;28;20076;-80
2020/12/14 00:14:09;;;;;;;7.05;4.45;;;4.10;99.90;;;;;;4977225;28;20049;-81
2020/12/14 00:16:34;;;;;;;7.95;4.60;;;4.10;99.90;;;;;;5003434;28;20082;-81
2020/12/14 00:19:00;;;;;;;8.75;4.45;;;4.10;99.90;;;;;;4965193;28;20080;-80
2020/12/14 00:21:25;;;;;;;9.43;4.47;;;4.10;99.90;;;;;;4994716;28;20113;-81
2020/12/14 00:23:51;;;;;;;11.43;5.15;;;4.00;99.90;;;;;;4999793;28;20038;-81
2020/12/14 00:26:19;;;;;;;11.52;5.28;;;4.00;99.90;;;;;;5012039;28;20452;-81
2020/12/14 00:28:48;;;;;;;12.20;5.22;;;4.00;99.90;;;;;;4974899;28;20125;-81
2020/12/14 00:31:17;;;;;;;12.63;5.13;;;3.90;99.90;;;;;;4997670;28;20044;-80
2020/12/14 00:33:46;;;;;;;10.73;4.78;;;3.90;99.90;;;;;;4981063;28;20048;-80
2020/12/14 00:36:12;;;;;;;8.43;5.05;;;3.80;99.90;;;;;;5027050;28;20041;-80
2020/12/14 00:38:38;;;;;;;9.60;4.78;;;3.80;99.90;;;;;;4980144;28;20080;-80
2020/12/14 00:41:05;;;;;;;9.13;4.68;;;3.80;99.90;;;;;;5004104;28;20064;-81
2020/12/14 00:43:30;;;;;;;10.00;4.72;;;3.70;99.90;;;;;;5041304;28;20045;-80
2020/12/14 00:45:56;;;;;;;12.40;4.85;;;3.70;99.90;;;;;;4981652;28;20033;-80
2020/12/14 00:48:22;;;;;;;8.80;5.50;;;3.60;99.90;;;;;;5002231;28;20061;-80
2020/12/14 00:50:47;;;;;;;12.48;5.32;;;3.60;99.90;;;;;;4993000;28;20065;-79
2020/12/14 00:53:13;;;;;;;7.68;4.55;;;3.60;99.90;;;;;;5026095;28;20105;-80
2020/12/14 00:55:39;;;;;;;8.02;4.70;;;3.60;99.90;;;;;;5007049;28;20037;-79
2020/12/14 00:58:05;;;;;;;16.20;5.28;;;3.50;99.90;;;;;;4998034;28;20064;-80
2020/12/14 01:00:30;;;;;;;13.02;5.05;;;3.60;99.90;;;;;;4987093;28;20061;-80
2020/12/14 01:02:56;;;;;;;10.02;4.90;;;3.50;99.90;;;;;;4987437;28;20990;-80
2020/12/14 01:05:22;;;;;;;9.75;5.35;;;3.60;99.90;;;;;;4977038;28;20026;-81
2020/12/14 01:07:47;;;;;;;9.18;4.53;;;3.60;99.90;;;;;;4996979;28;20068;-80
2020/12/14 01:10:13;;;;;;;11.00;5.22;;;3.60;99.90;;;;;;4964699;28;20034;-80
2020/12/14 01:12:38;;;;;;;9.40;5.07;;;3.60;99.90;;;;;;4969174;28;20034;-81
2020/12/14 01:15:05;;;;;;;10.02;4.53;;;3.50;99.90;;;;;;5001161;28;20062;-81
2020/12/14 01:17:31;;;;;;;8.93;4.57;;;3.50;99.90;;;;;;5041386;28;20402;-81
2020/12/14 01:19:57;;;;;;;11.02;5.38;;;3.60;99.90;;;;;;4980313;28;20041;-81
2020/12/14 01:22:22;;;;;;;7.35;4.78;;;3.50;99.90;;;;;;5001745;28;20038;-81
2020/12/14 01:24:48;;;;;;;7.88;4.45;;;3.50;99.90;;;;;;5002264;28;20046;-81
2020/12/14 01:27:13;;;;;;;7.65;4.65;;;3.50;99.90;;;;;;5002069;28;20457;-80
2020/12/14 01:29:39;;;;;;;8.30;4.50;;;3.50;99.90;;;;;;5003471;28;20542;-80
2020/12/14 01:32:04;;;;;;;10.63;5.15;;;3.60;99.90;;;;;;4997327;28;20034;-80
2020/12/14 01:34:30;;;;;;;13.43;5.80;;;3.70;99.90;;;;;;5020053;28;20436;-80
2020/12/14 01:36:55;;;;;;;10.70;4.97;;;3.70;99.90;;;;;;5001998;28;20126;-81
2020/12/14 01:39:21;;;;;;;15.73;5.43;;;3.80;99.90;;;;;;5000391;28;20030;-80
2020/12/14 01:41:47;;;;;;;11.32;4.70;;;3.90;99.90;;;;;;5028451;28;20030;-80
2020/12/14 01:44:12;;;;;;;13.55;4.90;;;3.80;99.90;;;;;;4990347;28;20052;-80
2020/12/14 01:46:42;;;;;;;11.48;4.93;;;3.80;99.90;;;;;;4999767;28;20046;-80
2020/12/14 01:49:09;;;;;;;8.73;4.90;;;3.80;99.90;;;;;;5002894;28;20034;-81
2020/12/14 01:51:35;;;;;;;14.25;5.25;;;3.70;99.90;;;;;;5001239;28;20050;-80
2020/12/14 01:54:07;;;;;;;7.35;4.55;;;3.70;99.90;;;;;;5016824;28;20026;-81
2020/12/14 01:56:33;;;;;;;7.32;4.15;;;3.70;99.90;;;;;;5015418;28;20057;-81
2020/12/14 01:58:58;;;;;;;14.20;5.18;;;3.40;99.90;;;;;;4975819;28;20503;-81
2020/12/14 02:01:24;;;;;;;10.77;4.60;;;3.60;99.90;;;;;;5023036;28;20037;-81
2020/12/14 02:03:49;;;;;;;8.05;4.82;;;3.60;99.90;;;;;;4999263;28;20417;-81
2020/12/14 02:06:15;;;;;;;9.73;4.70;;;3.50;99.90;;;;;;5015807;28;20548;-80
2020/12/14 02:08:41;;;;;;;8.63;4.75;;;3.60;99.90;;;;;;5026626;28;20110;-81
2020/12/14 02:11:06;;;;;;;8.82;4.93;;;3.50;99.90;;;;;;4991607;28;21023;-81
2020/12/14 02:13:32;;;;;;;7.05;4.47;;;3.50;99.90;;;;;;5016507;28;20041;-80
2020/12/14 02:15:57;;;;;;;8.13;5.03;;;3.40;99.90;;;;;;4998749;28;20061;-80
2020/12/14 02:18:23;;;;;;;16.33;5.72;;;3.40;99.90;;;;;;5038503;28;20037;-80
2020/12/14 02:20:50;;;;;;;8.00;4.80;;;3.40;99.90;;;;;;5012181;28;20111;-79
2020/12/14 02:23:15;;;;;;;7.07;4.03;;;3.40;99.90;;;;;;4985514;28;20122;-79
2020/12/14 02:25:41;;;;;;;12.55;5.00;;;3.40;99.90;;;;;;5002249;28;20038;-79
2020/12/14 02:28:06;;;;;;;9.95;5.22;;;3.40;99.90;;;;;;5027390;28;20052;-81
2020/12/14 02:30:32;;;;;;;11.95;5.28;;;3.40;99.90;;;;;;5036697;28;20057;-82
2020/12/14 02:32:57;;;;;;;8.63;4.75;;;3.40;99.90;;;;;;4984636;28;20046;-80
2020/12/14 02:35:23;;;;;;;8.63;4.68;;;3.50;99.90;;;;;;4984990;28;20599;-81
2020/12/14 02:37:49;;;;;;;11.80;5.43;;;3.40;99.90;;;;;;5008666;28;20045;-80
2020/12/14 02:40:14;;;;;;;13.85;6.00;;;3.50;99.90;;;;;;4983437;28;20042;-80
2020/12/14 02:42:40;;;;;;;7.65;4.57;;;3.60;99.90;;;;;;5006655;28;20056;-81
2020/12/14 02:45:05;;;;;;;8.77;4.88;;;3.60;99.90;;;;;;4996502;28;20038;-80
2020/12/14 02:47:31;;;;;;;9.00;4.72;;;3.60;99.90;;;;;;5019256;28;20041;-80
2020/12/14 02:49:57;;;;;;;10.50;5.15;;;3.60;99.90;;;;;;4981514;28;20037;-82
2020/12/14 02:52:22;;;;;;;10.10;5.50;;;3.70;99.90;;;;;;5010148;28;20073;-80
2020/12/14 02:54:48;;;;;;;8.63;4.70;;;3.50;99.90;;;;;;4970015;28;20050;-81
2020/12/14 02:57:14;;;;;;;7.22;4.80;;;3.50;99.90;;;;;;4995148;28;20046;-80
2020/12/14 02:59:39;;;;;;;9.77;4.47;;;3.50;99.90;;;;;;4994962;28;20152;-80
2020/12/14 03:02:05;;;;;;;7.95;4.82;;;3.40;99.90;;;;;;5022064;28;20502;-80
2020/12/14 03:04:31;;;;;;;8.35;4.68;;;3.40;99.90;;;;;;5006247;28;20034;-80
2020/12/14 03:06:57;;;;;;;10.40;4.38;;;3.40;99.90;;;;;;4996494;28;20069;-80
2020/12/14 03:09:22;;;;;;;9.07;4.65;;;3.30;99.90;;;;;;5021889;28;20053;-80
2020/12/14 03:11:49;;;;;;;7.20;4.50;;;3.30;99.90;;;;;;4996074;28;20117;-80
2020/12/14 03:14:14;;;;;;;9.57;5.05;;;3.30;99.90;;;;;;4999690;28;20056;-81
2020/12/14 03:16:45;;;;;;;8.05;4.50;;;3.30;99.90;;;;;;5019898;28;20097;-81
2020/12/14 03:19:11;;;;;;;8.85;4.72;;;3.20;99.90;;;;;;4999425;28;20038;-81
2020/12/14 03:21:37;;;;;;;8.63;4.65;;;3.20;99.90;;;;;;5022227;28;20030;-81
2020/12/14 03:24:03;;;;;;;6.75;4.05;;;3.20;99.90;;;;;;4995081;28;20033;-81
2020/12/14 03:26:28;;;;;;;7.85;4.15;;;3.10;99.90;;;;;;5019705;28;20049;-80
2020/12/14 03:28:54;;;;;;;9.15;4.70;;;3.10;99.90;;;;;;4996743;28;20077;-80
2020/12/14 03:31:20;;;;;;;6.63;4.00;;;3.00;99.90;;;;;;5002544;28;20105;-81
2020/12/14 03:33:47;;;;;;;8.95;4.72;;;3.00;99.90;;;;;;4999897;28;20037;-80
2020/12/14 03:36:12;;;;;;;6.07;4.07;;;3.00;99.90;;;;;;5025362;28;20037;-81
2020/12/14 03:38:38;;;;;;;9.00;4.88;;;3.00;99.90;;;;;;5023350;28;20029;-81
2020/12/14 03:41:05;;;;;;;8.05;4.00;;;3.00;99.90;;;;;;5010773;28;20071;-81
2020/12/14 03:43:30;;;;;;;9.55;4.30;;;3.00;99.90;;;;;;4994414;28;20684;-80
2020/12/14 03:45:56;;;;;;;9.45;4.70;;;3.00;99.90;;;;;;5000592;28;20041;-80
2020/12/14 03:48:23;;;;;;;5.68;3.47;;;2.90;99.90;;;;;;5018719;28;20021;-80
2020/12/14 03:50:48;;;;;;;10.05;4.63;;;2.90;99.90;;;;;;5011598;28;20022;-81
2020/12/14 03:53:14;;;;;;;7.20;4.00;;;2.90;99.90;;;;;;5023731;28;20030;-80
2020/12/14 03:55:40;;;;;;;12.00;4.25;;;2.80;99.90;;;;;;5021697;28;20200;-80
2020/12/14 03:58:09;;;;;;;5.57;3.63;;;2.80;99.90;;;;;;4981776;28;20553;-80
2020/12/14 04:00:35;;;;;;;7.05;4.32;;;2.90;99.90;;;;;;5022462;28;20038;-81
2020/12/14 04:03:04;;;;;;;9.38;4.35;;;2.80;99.90;;;;;;4994473;28;20061;-80
2020/12/14 04:05:30;;;;;;;6.75;3.70;;;2.90;99.90;;;;;;5021532;28;20654;-80
2020/12/14 04:07:56;;;;;;;8.70;4.50;;;2.80;99.90;;;;;;4974059;28;20037;-80
2020/12/14 04:10:21;;;;;;;6.47;4.35;;;2.80;99.90;;;;;;4997153;28;20045;-80
2020/12/14 04:12:47;;;;;;;8.68;4.32;;;2.80;99.90;;;;;;5021645;28;20025;-80
2020/12/14 04:15:12;;;;;;;6.82;3.85;;;2.80;99.90;;;;;;5000296;28;20041;-81
2020/12/14 04:17:38;;;;;;;8.43;4.57;;;2.80;99.90;;;;;;4998096;28;20047;-81
2020/12/14 04:20:03;;;;;;;7.35;4.28;;;2.80;99.90;;;;;;5019734;28;20045;-80
2020/12/14 04:22:29;;;;;;;8.68;4.07;;;2.80;99.90;;;;;;5022010;28;20046;-80
2020/12/14 04:24:54;;;;;;;5.35;3.63;;;2.80;99.90;;;;;;4997369;28;20113;-80
2020/12/14 04:27:20;;;;;;;9.20;4.18;;;2.70;99.90;;;;;;5001194;28;20036;-80
2020/12/14 04:29:46;;;;;;;7.85;4.10;;;2.80;99.90;;;;;;5017692;28;20125;-80
2020/12/14 04:32:11;;;;;;;7.65;4.60;;;2.80;99.90;;;;;;5012502;28;20072;-80
2020/12/14 04:34:37;;;;;;;7.95;4.13;;;2.80;99.90;;;;;;4994614;28;20053;-80
2020/12/14 04:37:02;;;;;;;8.93;5.55;;;3.00;99.90;;;;;;5010433;28;20038;-80
2020/12/14 04:39:28;;;;;;;8.98;4.88;;;3.10;99.90;;;;;;5009598;28;20468;-80
2020/12/14 04:41:57;;;;;;;8.35;4.88;;;3.20;99.90;;;;;;4978883;28;20043;-80
2020/12/14 04:44:23;;;;;;;8.10;4.45;;;3.20;99.90;;;;;;5016041;28;20488;-80
2020/12/14 04:46:50;;;;;;;10.10;5.63;;;3.30;99.90;;;;;;5004963;28;20038;-80
2020/12/14 04:49:16;;;;;;;10.70;4.93;;;3.30;99.90;;;;;;5005877;28;20045;-81
2020/12/14 04:51:42;;;;;;;7.95;4.20;;;3.20;99.90;;;;;;4995231;28;20127;-81
2020/12/14 04:54:08;;;;;;;7.63;4.53;;;3.10;99.90;;;;;;4969260;28;20541;-79
2020/12/14 04:56:41;;;;;;;8.10;4.85;;;3.10;99.90;;;;;;5019979;28;20037;-80
2020/12/14 04:59:07;;;;;;;9.50;4.35;;;3.10;99.90;;;;;;5016601;28;20093;-80
2020/12/14 05:01:34;;;;;;;10.38;4.65;;;3.10;99.90;;;;;;4984840;28;20113;-80
2020/12/14 05:04:00;;;;;;;10.15;4.88;;;3.00;99.90;;;;;;5026836;28;20038;-80
2020/12/14 05:06:26;;;;;;;9.10;4.75;;;3.00;99.90;;;;;;5024853;28;20038;-81
2020/12/14 05:08:52;;;;;;;8.35;4.65;;;3.00;99.90;;;;;;5000313;28;20199;-80
2020/12/14 05:11:34;;;;;;;8.60;4.95;;;3.00;99.90;;;;;;5018057;28;20045;-80
2020/12/14 05:14:23;;;;;;;7.20;4.35;;;2.90;99.90;;;;;;4989011;28;20026;-81
2020/12/14 05:16:50;;;;;;;7.53;4.60;;;3.00;99.90;;;;;;5025735;28;20030;-80
2020/12/14 05:19:22;;;;;;;9.52;4.30;;;3.00;99.90;;;;;;5000441;28;20042;-80
2020/12/14 05:21:58;;;;;;;7.95;4.75;;;2.90;99.90;;;;;;5018788;28;20030;-80
2020/12/14 05:24:31;;;;;;;10.30;4.82;;;2.90;99.90;;;;;;5000324;28;20060;-80
2020/12/14 05:26:58;;;;;;;11.70;4.97;;;2.90;99.90;;;;;;5016910;28;20033;-81
2020/12/14 05:29:29;;;;;;;7.78;4.65;;;2.90;99.90;;;;;;5019868;28;20060;-80
2020/12/14 05:32:04;;;;;;;9.48;4.95;;;2.90;99.90;;;;;;5001762;28;20393;-81
2020/12/14 05:34:33;;;;;;;9.40;4.35;;;2.90;99.90;;;;;;5002652;28;21044;-81
2020/12/14 05:37:00;;;;;;;10.75;4.47;;;2.90;99.90;;;;;;4993360;28;20034;-81
2020/12/14 05:39:27;;;;;;;11.77;5.45;;;2.90;99.90;;;;;;5027350;28;20054;-80
2020/12/14 05:41:53;;;;;;;10.80;5.47;;;3.00;99.90;;;;;;4960604;28;20038;-80
2020/12/14 05:44:28;;;;;;;8.07;4.72;;;3.00;99.90;;;;;;4977529;28;20038;-81
2020/12/14 05:46:54;;;;;;;10.57;5.22;;;2.90;99.90;;;;;;4976035;28;20173;-80
2020/12/14 05:49:20;;;;;;;12.40;4.97;;;2.90;99.90;;;;;;5016860;28;20435;-81
2020/12/14 05:51:46;;;;;;;11.38;5.53;;;2.80;99.90;;;;;;4997757;28;20033;-81
2020/12/14 05:54:22;;;;;;;9.55;5.50;;;2.80;99.90;;;;;;4991450;28;20145;-81
2020/12/14 05:56:48;;;;;;;11.85;5.88;;;2.80;99.90;;;;;;4996951;28;20041;-81
2020/12/14 05:59:18;;;;;;;13.32;5.90;;;2.90;99.90;;;;;;4970499;28;20555;-81
2020/12/14 06:01:44;;;;;;;13.48;6.25;;;2.90;99.90;;;;;;4998930;28;20064;-80
2020/12/14 06:04:11;;;;;;;19.13;7.22;;;3.00;99.90;;;;;;4975547;28;20129;-81
2020/12/14 06:06:47;;;;;;;14.93;6.53;;;3.10;99.90;;;;;;4977056;28;20042;-80
2020/12/14 06:09:20;;;;;;;16.23;6.57;;;3.10;99.90;;;;;;4991901;28;20045;-81
2020/12/14 06:11:51;;;;;;;14.15;7.13;;;3.10;99.90;;;;;;4984019;28;20281;-80
2020/12/14 06:14:19;;;;;;;13.18;7.22;;;3.10;99.90;;;;;;4995900;28;20038;-81
2020/12/14 06:16:46;;;;;;;13.75;7.43;;;3.20;99.90;;;;;;5010153;28;20124;-82
2020/12/14 06:19:13;;;;;;;13.95;7.43;;;3.10;99.90;;;;;;4999335;28;20096;-81
2020/12/14 06:22:02;;;;;;;16.42;7.40;;;3.10;99.90;;;;;;5033560;28;20183;-80
2020/12/14 06:24:30;;;;;;;14.35;7.35;;;3.10;99.90;;;;;;5021411;28;20422;-81
2020/12/14 06:26:56;;;;;;;20.13;7.85;;;3.20;99.90;;;;;;5018363;28;20109;-80
2020/12/14 06:29:32;;;;;;;15.85;7.50;;;3.10;99.90;;;;;;5021304;28;20054;-79
2020/12/14 06:31:58;;;;;;;16.13;8.38;;;3.20;99.90;;;;;;5021684;28;20038;-81
2020/12/14 06:34:38;;;;;;;17.08;9.00;;;3.20;99.90;;;;;;5022364;28;20034;-80
2020/12/14 06:37:05;;;;;;;16.40;8.27;;;3.10;99.90;;;;;;5022328;28;20034;-81
2020/12/14 06:39:40;;;;;;;16.42;7.72;;;3.10;99.90;;;;;;5020881;28;20565;-81
2020/12/14 06:42:09;;;;;;;16.40;7.95;;;3.20;99.90;;;;;;5019771;28;20042;-80
2020/12/14 06:44:41;;;;;;;25.48;7.70;;;3.10;99.90;;;;;;5037849;28;20049;-80
2020/12/14 06:47:14;;;;;;;16.35;7.97;;;2.80;99.90;;;;;;5035167;28;20547;-80
2020/12/14 06:49:40;;;;;;;13.13;6.50;;;3.20;99.90;;;;;;5019489;28;20038;-80
2020/12/14 06:52:05;;;;;;;19.40;8.93;;;3.20;99.90;;;;;;5020321;28;20037;-79
2020/12/14 06:54:44;;;;;;;17.20;8.48;;;3.20;99.90;;;;;;5023482;28;20113;-81
2020/12/14 06:57:16;;;;;;;19.52;7.68;;;3.20;99.90;;;;;;5020718;28;20060;-80
2020/12/14 06:59:50;;;;;;;15.02;8.25;;;3.20;99.90;;;;;;5021002;28;20092;-80
2020/12/14 07:02:16;;;;;;;22.77;8.57;;;3.20;99.90;;;;;;5020411;28;20038;-81
2020/12/14 07:04:43;;;;;;;22.10;9.50;;;3.20;99.90;;;;;;5021267;28;20060;-80
2020/12/14 07:07:08;;;;;;;15.70;8.65;;;3.20;99.90;;;;;;5021002;28;20041;-80
2020/12/14 07:09:36;;;;;;;15.95;8.57;;;3.20;99.90;;;;;;5035956;28;20363;-81
2020/12/14 07:12:11;;;;;;;19.73;8.10;;;3.20;99.90;;;;;;5036434;28;20438;-81
2020/12/14 07:14:51;;;;;;;17.92;8.90;;;3.30;99.90;;;;;;5022795;28;20580;-80
2020/12/14 07:17:18;;;;;;;16.33;8.52;;;3.30;99.90;;;;;;5021529;28;20045;-81
2020/12/14 07:19:51;;;;;;;17.65;8.35;;;3.30;99.90;;;;;;5035508;28;20222;-80
2020/12/14 07:22:21;;;;;;;20.25;9.75;;;3.30;99.90;;;;;;5020663;28;20663;-80
2020/12/14 07:25:06;;;;;;;16.58;8.13;;;3.30;99.90;;;;;;5019757;28;20044;-81
2020/12/14 07:27:32;;;;;;;22.77;10.77;;;3.30;99.90;;;;;;5017287;28;20038;-79
2020/12/14 07:30:06;;;;;;;18.13;9.38;;;3.30;99.90;;;;;;5016766;28;20041;-80
2020/12/14 07:32:32;;;;;;;20.20;10.80;;;3.40;99.90;;;;;;5020077;28;20030;-79
2020/12/14 07:34:58;;;;;;;18.90;8.65;;;3.30;99.90;;;;;;5038671;28;20033;-80
2020/12/14 07:37:24;;;;;;;22.63;9.05;;;3.40;99.90;;;;;;5023263;28;20100;-81
2020/12/14 07:39:50;;;;;;;20.88;9.18;;;3.40;99.90;;;;;;5019000;28;20166;-80
2020/12/14 07:42:23;;;;;;;16.88;8.32;;;3.40;99.90;;;;;;5021625;28;20045;-81
2020/12/14 07:44:49;;;;;;;17.02;9.50;;;3.40;99.90;;;;;;5019992;28;20115;-81
2020/12/14 07:47:21;;;;;;;18.75;9.38;;;3.40;99.90;;;;;;5019997;28;20042;-80
2020/12/14 07:49:47;;;;;;;21.02;9.20;;;3.40;99.90;;;;;;5019367;28;20030;-80
2020/12/14 07:52:26;;;;;;;21.50;10.40;;;3.50;99.90;;;;;;5020066;28;20076;-80
2020/12/14 07:55:03;;;;;;;18.77;9.80;;;3.60;99.90;;;;;;5019616;28;20033;-80
2020/12/14 07:57:32;;;;;;;18.60;8.82;;;3.60;99.90;;;;;;5021339;28;20054;-80
2020/12/14 07:59:59;;;;;;;18.85;9.20;;;3.70;99.90;;;;;;5035148;28;20114;-81
2020/12/14 08:02:26;;;;;;;24.00;10.75;;;3.80;99.90;;;;;;5018407;28;20033;-79
2020/12/14 08:04:59;;;;;;;20.23;10.60;;;3.80;99.90;;;;;;5013373;28;20049;-79
2020/12/14 08:07:30;;;;;;;21.90;10.82;;;3.90;99.90;;;;;;5011083;28;20034;-80
2020/12/14 08:09:56;;;;;;;19.55;9.85;;;3.90;99.90;;;;;;5009565;28;20038;-80
2020/12/14 08:12:21;;;;;;;17.45;9.02;;;4.00;99.90;;;;;;5015696;28;20029;-80
2020/12/14 08:14:47;;;;;;;18.67;8.70;;;4.00;99.90;;;;;;5013823;28;20038;-80
2020/12/14 08:17:13;;;;;;;23.48;9.38;;;4.00;99.90;;;;;;5015234;28;20026;-81
2020/12/14 08:19:39;;;;;;;18.88;9.35;;;4.10;99.90;;;;;;5017730;28;20034;-80
2020/12/14 08:22:10;;;;;;;20.95;10.18;;;4.10;99.90;;;;;;5037540;28;20026;-81
2020/12/14 08:24:37;;;;;;;17.25;9.50;;;3.80;99.90;;;;;;5023471;28;20065;-81
2020/12/14 08:27:07;;;;;;;21.15;9.32;;;4.20;99.90;;;;;;5020928;28;20033;-79
2020/12/14 08:29:34;;;;;;;25.00;9.27;;;4.30;99.90;;;;;;5018468;28;20045;-79
2020/12/14 08:32:01;;;;;;;25.27;10.48;;;4.40;99.90;;;;;;5020317;28;20041;-79
2020/12/14 08:34:37;;;;;;;18.30;8.60;;;4.50;99.90;;;;;;5016714;28;20186;-81
2020/12/14 08:37:04;;;;;;;22.08;8.90;;;4.60;99.90;;;;;;5009701;28;20030;-79
2020/12/14 08:39:30;;;;;;;19.35;9.77;;;4.70;99.90;;;;;;5017557;28;20685;-80
2020/12/14 08:42:08;;;;;;;23.27;10.85;;;4.70;99.90;;;;;;5017985;28;20044;-80
2020/12/14 08:44:35;;;;;;;30.30;13.63;;;4.70;99.90;;;;;;5049513;23;20064;-83
2020/12/14 08:47:00;;;;;;;18.23;9.13;;;4.80;99.90;;;;;;5037405;28;20133;-82
2020/12/14 08:49:27;;;;;;;19.58;10.23;;;4.80;99.90;;;;;;5025206;28;20183;-81
2020/12/14 08:51:53;;;;;;;16.58;9.23;;;4.80;99.90;;;;;;5018948;28;20034;-81
2020/12/14 08:54:20;;;;;;;17.75;10.00;;;4.90;99.90;;;;;;5021169;28;20437;-81
2020/12/14 08:56:46;;;;;;;21.83;10.05;;;5.00;99.90;;;;;;5019700;28;20033;-82
2020/12/14 08:59:13;;;;;;;20.23;9.48;;;5.00;99.90;;;;;;5028655;28;20052;-84
2020/12/14 09:01:39;;;;;;;21.33;9.77;;;5.10;99.90;;;;;;5018652;28;20030;-82
2020/12/14 09:04:06;;;;;;;18.15;9.63;;;5.00;99.90;;;;;;5019292;28;20112;-82
2020/12/14 09:06:39;;;;;;;16.83;9.02;;;5.10;99.90;;;;;;5020432;28;20041;-83
2020/12/14 09:09:12;;;;;;;22.90;9.75;;;5.20;99.90;;;;;;5001718;28;20041;-84
2020/12/14 09:11:58;;;;;;;16.35;8.98;;;5.30;99.90;;;;;;5025052;28;20041;-81
2020/12/14 09:14:32;;;;;;;17.73;9.45;;;5.30;99.90;;;;;;5011662;28;20045;-81
2020/12/14 09:17:00;;;;;;;18.25;9.00;;;5.40;99.90;;;;;;5022273;28;20042;-81
2020/12/14 09:19:31;;;;;;;16.95;9.07;;;5.40;99.90;;;;;;5018391;28;20041;-82
2020/12/14 09:21:57;;;;;;;16.95;9.00;;;5.40;99.90;;;;;;5011239;28;20049;-82
2020/12/14 09:24:32;;;;;;;17.02;8.90;;;5.50;99.90;;;;;;5022208;28;20034;-82
2020/12/14 09:27:12;;;;;;;18.45;8.68;;;5.60;99.90;;;;;;5022402;28;20043;-82
2020/12/14 09:29:39;;;;;;;18.08;8.93;;;5.70;99.90;;;;;;5020595;28;20045;-81
2020/12/14 09:32:07;;;;;;;14.52;8.05;;;5.70;99.90;;;;;;5019723;28;20040;-81
2020/12/14 09:34:33;;;;;;;17.20;7.82;;;5.80;99.90;;;;;;5023984;28;20131;-82
2020/12/14 09:37:00;;;;;;;15.98;8.43;;;5.90;99.90;;;;;;5003795;28;20890;-82
2020/12/14 09:39:28;;;;;;;24.15;8.60;;;6.00;99.90;;;;;;5021827;28;20157;-81
2020/12/14 09:41:57;;;;;;;19.63;8.70;;;6.10;99.90;;;;;;5026106;28;20030;-82
2020/12/14 09:44:27;;;;;;;22.73;9.20;;;6.20;99.90;;;;;;5004308;28;20045;-83
2020/12/14 09:46:53;;;;;;;31.77;8.43;;;6.20;99.90;;;;;;5022514;28;20401;-83
2020/12/14 09:49:19;;;;;;;20.65;9.20;;;6.20;99.90;;;;;;5022376;28;20122;-83
2020/12/14 09:51:44;;;;;;;24.17;8.75;;;6.30;99.90;;;;;;5021820;28;20624;-81
2020/12/14 09:54:10;;;;;;;17.40;8.73;;;6.30;99.90;;;;;;5022509;28;20085;-81
2020/12/14 09:56:36;;;;;;;17.33;8.00;;;6.40;99.90;;;;;;5003841;28;20703;-81
2020/12/14 09:59:03;;;;;;;17.90;8.35;;;6.50;99.90;;;;;;5023402;28;20433;-81
2020/12/14 10:01:29;;;;;;;15.25;6.90;;;6.60;99.90;;;;;;5024528;28;20033;-81
2020/12/14 10:03:58;;;;;;;15.45;7.85;;;6.70;98.90;;;;;;5030521;28;20130;-81
2020/12/14 10:06:25;;;;;;;13.73;7.57;;;6.90;98.10;;;;;;5033219;28;20072;-82
2020/12/14 10:08:50;;;;;;;11.52;7.05;;;7.00;97.10;;;;;;5009079;28;20038;-81
2020/12/14 10:11:16;;;;;;;13.15;7.15;;;7.20;96.90;;;;;;5028956;28;20160;-81
2020/12/14 10:13:43;;;;;;;14.20;7.68;;;7.20;95.60;;;;;;5017619;28;20034;-81
2020/12/14 10:16:12;;;;;;;15.27;6.80;;;7.40;96.10;;;;;;5013796;28;20032;-81
2020/12/14 10:18:37;;;;;;;14.07;6.90;;;7.50;95.50;;;;;;5018391;28;20065;-81
2020/12/14 10:21:03;;;;;;;14.07;7.68;;;7.60;94.70;;;;;;5031355;28;20455;-82
2020/12/14 10:23:29;;;;;;;14.52;6.75;;;7.70;94.00;;;;;;5035299;28;20029;-83
2020/12/14 10:25:55;;;;;;;14.02;7.03;;;7.70;93.20;;;;;;5029532;28;20045;-83
2020/12/14 10:28:21;;;;;;;12.95;6.68;;;7.90;93.00;;;;;;5032136;28;20034;-82
2020/12/14 10:30:47;;;;;;;15.73;6.90;;;7.90;92.60;;;;;;5037717;28;20053;-80
2020/12/14 10:33:12;;;;;;;16.40;7.30;;;8.00;92.20;;;;;;5031704;28;20096;-81
2020/12/14 10:35:38;;;;;;;14.43;7.20;;;8.10;92.10;;;;;;5020133;28;20037;-82
2020/12/14 10:38:04;;;;;;;12.13;6.57;;;8.10;91.00;;;;;;5024766;28;20049;-82
2020/12/14 10:40:29;;;;;;;13.77;6.97;;;8.10;91.20;;;;;;5024076;28;20450;-81
2020/12/14 10:42:55;;;;;;;12.20;6.38;;;8.30;91.10;;;;;;5013707;28;20552;-80
2020/12/14 10:45:21;;;;;;;15.02;7.15;;;8.30;90.40;;;;;;5023064;28;20495;-80
2020/12/14 10:47:47;;;;;;;12.02;5.85;;;8.30;91.30;;;;;;5008482;28;20057;-83
2020/12/14 10:50:15;;;;;;;9.65;5.68;;;8.40;91.00;;;;;;5027208;28;20030;-82
2020/12/14 10:52:41;;;;;;;10.90;6.60;;;8.40;90.90;;;;;;5005214;28;20350;-82
2020/12/14 10:55:07;;;;;;;10.55;6.15;;;8.50;90.40;;;;;;5013555;28;20125;-82
2020/12/14 10:57:32;;;;;;;14.18;6.60;;;8.60;89.90;;;;;;5026349;28;20432;-82
2020/12/14 11:00:06;;;;;;;10.70;5.93;;;8.60;90.00;;;;;;5002404;28;20036;-82
2020/12/14 11:02:35;;;;;;;9.68;5.78;;;8.70;89.50;;;;;;5002505;28;20575;-82
2020/12/14 11:05:04;;;;;;;12.73;5.78;;;8.50;87.90;;;;;;5019503;28;20053;-81
2020/12/14 11:07:33;;;;;;;11.85;6.13;;;8.50;89.30;;;;;;5017890;28;20033;-81
2020/12/14 11:09:59;;;;;;;15.13;6.07;;;8.60;88.50;;;;;;5013738;28;20025;-82
2020/12/14 11:12:25;;;;;;;15.85;7.45;;;8.60;89.60;;;;;;5011994;28;20054;-82
2020/12/14 11:14:52;;;;;;;10.23;5.70;;;8.70;90.20;;;;;;5009714;28;20575;-83
2020/12/14 11:17:17;;;;;;;15.40;5.88;;;8.80;89.50;;;;;;4997590;28;20041;-82
2020/12/14 11:19:43;;;;;;;15.65;6.32;;;8.80;87.90;;;;;;5020440;28;20050;-82
2020/12/14 11:22:08;;;;;;;12.98;5.72;;;8.90;87.90;;;;;;5018122;28;20912;-81
2020/12/14 11:24:34;;;;;;;8.93;5.53;;;9.00;87.50;;;;;;5020156;28;20251;-84
2020/12/14 11:27:00;;;;;;;15.05;6.05;;;9.10;88.80;;;;;;5013969;28;20034;-81
2020/12/14 11:29:27;;;;;;;13.43;6.05;;;9.40;87.80;;;;;;5015589;28;20034;-81
2020/12/14 11:31:53;;;;;;;12.52;5.60;;;9.40;87.30;;;;;;5013584;28;20038;-80
2020/12/14 11:34:18;;;;;;;12.15;5.80;;;9.30;85.50;;;;;;5015861;28;20130;-81
2020/12/14 11:36:44;;;;;;;13.05;6.05;;;9.40;86.30;;;;;;5017541;28;20037;-81
2020/12/14 11:39:09;;;;;;;13.20;5.00;;;9.40;84.40;;;;;;5015536;28;20087;-80
2020/12/14 11:41:35;;;;;;;15.57;5.43;;;9.50;84.20;;;;;;5017261;28;20029;-83
2020/12/14 11:44:00;;;;;;;8.55;4.85;;;9.50;83.50;;;;;;5001206;28;20049;-80
2020/12/14 11:46:26;;;;;;;11.43;5.45;;;9.60;82.50;;;;;;5002912;28;20037;-83
2020/12/14 11:48:52;;;;;;;17.15;5.32;;;9.70;82.50;;;;;;5024563;28;20057;-83
2020/12/14 11:51:18;;;;;;;7.80;4.35;;;9.80;82.50;;;;;;5027393;28;20082;-83
2020/12/14 11:53:44;;;;;;;8.55;4.55;;;9.70;82.20;;;;;;5015411;28;20129;-82
2020/12/14 11:56:09;;;;;;;9.48;4.50;;;9.70;82.40;;;;;;5003372;28;20064;-83
2020/12/14 11:58:35;;;;;;;11.38;4.40;;;9.80;82.70;;;;;;5017526;28;20042;-84
2020/12/14 12:01:00;;;;;;;10.05;5.25;;;9.90;82.80;;;;;;5018884;28;21350;-81
2020/12/14 12:03:26;;;;;;;9.25;4.55;;;9.90;81.70;;;;;;5019488;28;20095;-83
2020/12/14 12:05:51;;;;;;;13.27;4.68;;;10.00;80.60;;;;;;5019444;28;20042;-81
2020/12/14 12:08:17;;;;;;;13.63;6.85;;;10.10;78.40;;;;;;5018170;28;20053;-81
2020/12/14 12:10:42;;;;;;;11.77;5.60;;;10.00;79.60;;;;;;5016503;28;20037;-81
2020/12/14 12:13:08;;;;;;;8.88;4.80;;;10.10;79.10;;;;;;5001028;28;20180;-83
2020/12/14 12:15:34;;;;;;;12.43;4.70;;;10.30;79.30;;;;;;5029185;28;20041;-81
2020/12/14 12:18:00;;;;;;;12.60;4.38;;;10.50;79.50;;;;;;5028155;28;20064;-80
2020/12/14 12:20:25;;;;;;;9.07;4.38;;;10.30;76.80;;;;;;5034332;28;20042;-81
2020/12/14 12:22:56;;;;;;;7.93;4.00;;;10.40;80.20;;;;;;5028805;28;20042;-80
2020/12/14 12:25:22;;;;;;;9.82;4.30;;;10.30;77.30;;;;;;5039048;28;20029;-81
2020/12/14 12:27:48;;;;;;;9.82;4.57;;;10.50;79.00;;;;;;5020989;28;20053;-81
2020/12/14 12:30:13;;;;;;;11.95;4.60;;;10.60;78.40;;;;;;5028591;28;20045;-80
2020/12/14 12:32:39;;;;;;;16.45;5.35;;;10.70;77.90;;;;;;5024635;28;20061;-81
2020/12/14 12:35:04;;;;;;;13.20;4.97;;;10.70;78.90;;;;;;5031753;28;20528;-82
2020/12/14 12:37:30;;;;;;;11.20;5.55;;;10.90;78.40;;;;;;5019117;28;20030;-83
2020/12/14 12:39:55;;;;;;;11.27;5.32;;;10.90;77.90;;;;;;5028532;28;20067;-83
2020/12/14 12:42:21;;;;;;;15.88;5.68;;;10.80;77.40;;;;;;5025709;28;20056;-81
2020/12/14 12:44:46;;;;;;;9.90;6.13;;;10.90;78.30;;;;;;5038703;28;20373;-83
2020/12/14 12:47:12;;;;;;;14.48;5.40;;;10.90;78.80;;;;;;5023825;28;20038;-81
2020/12/14 12:49:38;;;;;;;19.27;6.15;;;10.90;77.50;;;;;;5015575;28;20093;-81
2020/12/14 12:52:04;;;;;;;18.20;7.13;;;10.90;78.00;;;;;;5027169;28;20052;-81